Latest Coastal Weather Observations for Warruwi

IDD60701

Issued at 2:15 pm CST Wednesday 3 September 2014 (issued every 10 minutes, with the page automatically refreshed every 10 minutes)

About coastal observations | Map of coastal stations | Coastal observations for NT | Marine services | Other Formats
Station Details ID: 014401 Name: WARRUWI AIRPORT Lat: -11.65 Lon: 133.38 Height: 19.2 m
Data from the previous 72 hours. | See also: Recent months at Warruwi
Date/Time
CST
Temp

°C
Wind Pressure Rain
since 9am
mm
Weather Cloud Vis
km
Sea
Height
m
Swell
Dir
 
Speed
knots
Gust
knots
hPa Trend Height
m
Period
s
Dir
03/02:00pm 31.0 E 7 10 1013.3 - 0.0 - - - - - - -
03/01:30pm 29.9 E 7 9 1013.8 - 0.0 - - - - - - -
03/01:00pm 29.8 E 5 8 1014.2 - 0.0 - - - - - - -
03/12:30pm 29.0 E 7 10 1014.6 - 0.0 - - - - - - -
03/12:00pm 29.0 E 7 10 1014.9 - 0.0 - - - - - - -
03/11:30am 29.1 E 7 10 1015.4 - 0.0 - - - - - - -
03/11:00am 29.9 SE 7 11 1015.9 - 0.0 - - - - - - -
03/10:30am 28.8 SE 7 11 1016.1 - 0.0 - - - - - - -
03/10:00am 27.3 SSE 8 11 1016.4 - 0.0 - - - - - - -
03/09:30am 26.6 S 5 7 1016.3 - 0.0 - - - - - - -
03/09:00am 25.0 S 5 7 1016.2 - 0.0 - - - - - - -
03/08:30am 22.6 S 5 8 1016.2 - 0.0 - - - - - - -
03/08:00am 22.0 S 4 7 1015.7 - 0.0 - - - - - - -
03/07:30am 20.2 S 3 4 1015.1 - 0.0 - - - - - - -
03/07:00am 19.0 S 3 4 1014.7 - 0.0 - - - - - - -
03/06:30am 18.5 SSW 1 2 1014.4 - 0.0 - - - - - - -
03/06:00am 19.2 CALM 0 0 1014.1 - 0.0 - - - - - - -
03/05:30am 19.1 S 1 2 1013.8 - 0.0 - - - - - - -
03/05:00am 19.4 SSE 2 3 1013.6 - 0.0 - - - - - - -
03/04:30am 19.7 SSE 1 2 1013.4 - 0.0 - - - - - - -
03/04:00am 20.0 S 1 2 1013.3 - 0.0 - - - - - - -
03/03:30am 20.0 CALM 0 0 1013.3 - 0.0 - - - - - - -
03/03:00am 19.9 CALM 0 0 1013.6 - 0.0 - - - - - - -
03/02:30am 20.1 CALM 0 0 1013.8 - 0.0 - - - - - - -
03/02:00am 20.5 CALM 0 0 1014.2 - 0.0 - - - - - - -
03/01:30am 20.7 CALM 0 0 1014.4 - 0.0 - - - - - - -
03/01:00am 21.2 CALM 0 1 1015.0 - 0.0 - - - - - - -
03/12:30am 22.3 CALM 0 1 1015.5 - 0.0 - - - - - - -
03/12:00am 23.2 SE 2 4 1015.6 - 0.0 - - - - - - -
 
Date/Time
CST
Temp

°C
Wind Pressure Rain
since 9am
mm
Weather Cloud Vis
km
Sea
Height
m
Swell
Dir
 
Speed
knots
Gust
knots
hPa Trend Height
m
Period
s
Dir
02/11:30pm 23.7 SE 3 5 1015.8 - 0.0 - - - - - - -
02/11:00pm 24.0 ESE 4 5 1015.5 - 0.0 - - - - - - -
02/10:30pm 24.3 ESE 4 6 1015.2 - 0.0 - - - - - - -
02/10:00pm 24.3 ESE 4 6 1015.0 - 0.0 - - - - - - -
02/09:30pm 24.1 E 3 5 1015.1 - 0.0 - - - - - - -
02/09:00pm 24.2 E 2 3 1014.9 - 0.0 - - - - - - -
02/08:30pm 24.5 E 4 6 1014.7 - 0.0 - - - - - - -
02/08:00pm 24.7 E 4 8 1014.3 - 0.0 - - - - - - -
02/07:30pm 24.9 ENE 4 7 1013.8 - 0.0 - - - - - - -
02/07:00pm 25.1 ENE 5 9 1013.3 - 0.0 - - - - - - -
02/06:30pm 25.6 ENE 7 12 1012.9 - 0.0 - - - - - - -
02/06:00pm 26.4 ENE 7 12 1012.7 - 0.0 - - - - - - -
02/05:30pm 27.5 ENE 8 12 1012.4 - 0.0 - - - - - - -
02/05:00pm 27.8 ENE 8 18 1012.2 - 0.0 - - - - - - -
02/04:30pm 28.3 ENE 9 15 1012.1 - 0.0 - - - - - - -
02/04:00pm 29.2 NE 8 16 1012.0 - 0.0 - - - - - - -
02/03:30pm 29.6 ENE 9 19 1012.0 - 0.0 - - - - - - -
02/03:00pm 30.9 ENE 9 16 1012.1 - 0.0 - - - - - - -
02/02:30pm 30.5 ENE 11 17 1012.3 - 0.0 - - - - - - -
02/02:00pm 30.4 ENE 9 13 1012.7 - 0.0 - - - - - - -
02/01:30pm 30.0 ENE 7 11 1013.1 - 0.0 - - - - - - -
02/01:00pm 29.0 E 9 12 1013.5 - 0.0 - - - - - - -
02/12:30pm 28.7 E 7 11 1014.1 - 0.0 - - - - - - -
02/12:00pm 28.8 E 8 11 1014.5 - 0.0 - - - - - - -
02/11:30am 27.9 E 8 12 1014.9 - 0.0 - - - - - - -
02/11:00am 26.8 E 7 10 1015.2 - 0.0 - - - - - - -
02/10:30am 26.7 E 9 12 1015.7 - 0.0 - - - - - - -
02/10:00am 26.4 E 8 12 1016.0 - 0.0 - - - - - - -
02/09:30am 25.5 E 8 10 1015.8 - 0.0 - - - - - - -
02/09:00am 25.1 ESE 8 10 1015.8 - 0.0 - - - - - - -
02/08:30am 24.4 ESE 7 10 1015.7 - 0.0 - - - - - - -
02/08:00am 23.3 SE 6 9 1015.5 - 0.0 - - - - - - -
02/07:30am 22.8 ESE 5 7 1015.1 - 0.0 - - - - - - -
02/07:00am 21.9 SE 4 7 1014.7 - 0.0 - - - - - - -
02/06:30am 21.5 SE 3 6 1014.6 - 0.0 - - - - - - -
02/06:00am 21.5 SE 4 6 1014.3 - 0.0 - - - - - - -
02/05:30am 21.6 SE 3 5 1014.1 - 0.0 - - - - - - -
02/05:00am 22.1 ESE 5 6 1014.0 - 0.0 - - - - - - -
02/04:30am 22.8 ESE 5 8 1014.1 - 0.0 - - - - - - -
02/04:00am 23.0 E 6 9 1014.0 - 0.0 - - - - - - -
02/03:30am 23.1 ESE 7 10 1014.0 - 0.0 - - - - - - -
02/03:00am 22.6 ESE 4 6 1014.2 - 0.0 - - - - - - -
02/02:30am 22.8 SE 4 6 1014.5 - 0.0 - - - - - - -
02/02:00am 23.5 ESE 5 8 1014.8 - 0.0 - - - - - - -
02/01:30am 23.7 ESE 5 7 1014.7 - 0.0 - - - - - - -
02/01:00am 24.3 E 8 11 1014.8 - 0.0 - - - - - - -
02/12:30am 24.3 E 6 8 1014.9 - 0.0 - - - - - - -
02/12:00am 24.4 E 7 10 1014.8 - 0.0 - - - - - - -
 
Date/Time
CST
Temp

°C
Wind Pressure Rain
since 9am
mm
Weather Cloud Vis
km
Sea
Height
m
Swell
Dir
 
Speed
knots
Gust
knots
hPa Trend Height
m
Period
s
Dir
01/11:30pm 24.4 E 6 10 1014.9 - 0.0 - - - - - - -
01/11:00pm 24.3 E 7 10 1014.9 - 0.0 - - - - - - -
01/10:30pm 24.2 ENE 5 8 1014.6 - 0.0 - - - - - - -
01/10:00pm 24.3 ENE 5 8 1014.3 - 0.0 - - - - - - -
01/09:30pm 24.6 ENE 5 8 1014.0 - 0.0 - - - - - - -
01/09:00pm 24.8 E 6 9 1013.6 - 0.0 - - - - - - -
01/08:30pm 25.2 ENE 5 6 1013.1 - 0.0 - - - - - - -
01/08:00pm 25.3 ENE 5 8 1012.6 - 0.0 - - - - - - -
01/07:30pm 25.2 ENE 5 8 1012.2 - 0.0 - - - - - - -
01/07:00pm 25.3 ENE 4 8 1011.7 - 0.0 - - - - - - -
01/06:30pm 25.9 ENE 5 9 1011.6 - 0.0 - - - - - - -
01/06:00pm 26.8 ENE 6 11 1011.3 - 0.0 - - - - - - -
01/05:30pm 27.8 ENE 6 12 1011.0 - 0.0 - - - - - - -
01/05:00pm 28.6 ENE 8 15 1011.0 - 0.0 - - - - - - -
01/04:30pm 29.1 ENE 8 15 1010.8 - 0.0 - - - - - - -
01/04:00pm 29.6 ENE 8 13 1010.7 - 0.0 - - - - - - -
01/03:30pm 30.1 E 8 13 1010.8 - 0.0 - - - - - - -
01/03:00pm 30.1 E 9 15 1011.0 - 0.0 - - - - - - -
01/02:30pm 30.4 E 9 15 1011.4 - 0.0 - - - - - - -
01/02:00pm 30.3 E 10 14 1011.7 - 0.0 - - - - - - -
01/01:30pm 29.5 E 10 14 1012.4 - 0.0 - - - - - - -
01/01:00pm 29.3 E 9 14 1012.8 - 0.0 - - - - - - -
01/12:30pm 29.3 E 8 11 1013.3 - 0.0 - - - - - - -
01/12:00pm 29.1 E 8 11 1013.8 - 0.0 - - - - - - -
01/11:30am 28.6 E 6 8 1014.4 - 0.0 - - - - - - -
01/11:00am 28.3 E 7 10 1014.9 - 0.0 - - - - - - -
01/10:30am 27.1 E 6 9 1015.4 - 0.0 - - - - - - -
01/10:00am 26.4 ESE 5 8 1015.5 - 0.0 - - - - - - -
01/09:30am 25.5 SE 6 8 1015.7 - 0.0 - - - - - - -
01/09:00am 24.4 SE 4 7 1015.7 - 0.0 - - - - - - -
01/08:30am 23.7 SE 4 6 1015.4 - 0.0 - - - - - - -
01/08:00am 22.9 SE 4 7 1015.4 - 0.0 - - - - - - -
01/07:30am 22.1 SSE 3 6 1015.0 - 0.0 - - - - - - -
01/07:00am 21.2 SSE 2 3 1014.5 - 0.0 - - - - - - -
01/06:30am 21.6 ESE 2 4 1014.2 - 0.0 - - - - - - -
01/06:00am 21.9 E 3 6 1014.1 - 0.0 - - - - - - -
01/05:30am 22.6 ESE 3 5 1013.8 - 0.0 - - - - - - -
01/05:00am 23.2 E 6 9 1013.7 - 0.0 - - - - - - -
01/04:30am 23.3 E 6 9 1013.4 - 0.0 - - - - - - -
01/04:00am 23.5 E 7 10 1013.3 - 0.0 - - - - - - -
01/03:30am 23.7 E 8 11 1013.5 - 0.0 - - - - - - -
01/03:00am 23.9 E 8 14 1013.7 - 0.0 - - - - - - -
01/02:30am 23.9 E 6 9 1013.9 - 0.0 - - - - - - -
01/02:00am 23.9 ENE 6 9 1014.0 - 0.0 - - - - - - -
01/01:30am 23.9 ENE 6 11 1014.0 - 0.0 - - - - - - -
01/01:00am 23.8 ENE 5 10 1014.0 - 0.0 - - - - - - -
01/12:30am 23.8 ENE 5 7 1013.9 - 0.0 - - - - - - -
01/12:00am 23.7 ENE 4 6 1013.9 - 0.0 - - - - - - -
 
Date/Time
CST
Temp

°C
Wind Pressure Rain
since 9am
mm
Weather Cloud Vis
km
Sea
Height
m
Swell
Dir
 
Speed
knots
Gust
knots
hPa Trend Height
m
Period
s
Dir
31/11:30pm 23.8 E 5 7 1013.9 - 0.0 - - - - - - -
31/11:00pm 23.9 ENE 5 10 1013.7 - 0.0 - - - - - - -
31/10:30pm 23.6 E 4 6 1013.5 - 0.0 - - - - - - -
31/10:00pm 23.7 ENE 3 5 1013.3 - 0.0 - - - - - - -
31/09:30pm 23.8 ENE 4 6 1013.0 - 0.0 - - - - - - -
31/09:00pm 23.9 E 3 5 1012.8 - 0.0 - - - - - - -
31/08:30pm 24.0 ENE 3 6 1012.5 - 0.0 - - - - - - -
31/08:00pm 24.0 ENE 3 6 1012.3 - 0.0 - - - - - - -
31/07:30pm 24.2 NE 3 5 1011.9 - 0.0 - - - - - - -
31/07:00pm 24.6 ENE 5 8 1011.3 - 0.0 - - - - - - -
31/06:30pm 25.2 ENE 4 7 1010.9 - 0.0 - - - - - - -
31/06:00pm 25.9 E 6 12 1010.6 - 0.0 - - - - - - -
31/05:30pm 26.8 E 7 13 1010.5 - 0.0 - - - - - - -
31/05:00pm 27.4 ENE 8 14 1010.5 - 0.0 - - - - - - -
31/04:30pm 27.7 ENE 8 14 1010.6 - 0.0 - - - - - - -
31/04:00pm 28.1 ENE 9 16 1010.7 - 0.0 - - - - - - -
31/03:30pm 27.9 ENE 8 12 1010.5 - 0.0 - - - - - - -
31/03:00pm 28.7 ENE 8 13 1010.5 - 0.0 - - - - - - -
31/02:30pm 29.2 E 8 12 1010.7 - 0.0 - - - - - - -

Other Formats:

Comma delimited format used in spreadsheet applications
http://www.bom.gov.au/fwo/IDD60701/IDD60701.94139.axf

JavaScript Object Notation format (JSON) in row-major order
http://www.bom.gov.au/fwo/IDD60701/IDD60701.94139.json